Time;durP1;ratioP1;P1;durP2;ratioP2;P2;SDS_P1;SDS_P2;PMS_P1;PMS_P2;Temp;Humidity;BMP_temperature;BMP_pressure;BME280_temperature;BME280_humidity;BME280_pressure;Samples;Min_cycle;Max_cycle;Signal;HPM_P1;HPM_P2
2021/08/01 00:00:07;;;;;;;5.60;4.53;;;;;;;15.44;82.66;100267.22;694636;28;1603;-56
2021/08/01 00:00:32;;;;;;;6.05;4.40;;;;;;;15.43;83.01;100262.00;693046;28;1836;-57
2021/08/01 00:00:53;;;;;;;7.00;4.60;;;;;;;15.40;82.62;100262.97;693596;28;4531;-53
2021/08/01 00:01:21;;;;;;;6.55;4.40;;;;;;;15.40;82.53;100259.47;693386;28;1237;-56
2021/08/01 00:01:41;;;;;;;6.15;4.60;;;;;;;15.39;82.63;100255.97;694356;28;1682;-57
2021/08/01 00:02:02;;;;;;;6.00;4.67;;;;;;;15.39;82.98;100260.38;693048;28;4208;-57
2021/08/01 00:02:22;;;;;;;6.50;4.50;;;;;;;15.37;83.03;100263.06;694873;28;4292;-56
2021/08/01 00:02:43;;;;;;;6.73;4.50;;;;;;;15.38;83.05;100263.91;696130;28;1843;-58
2021/08/01 00:03:03;;;;;;;7.55;4.43;;;;;;;15.39;82.59;100255.97;696696;28;1896;-52
2021/08/01 00:03:23;;;;;;;8.33;4.50;;;;;;;15.41;82.24;100254.16;695825;28;2097;-55
2021/08/01 00:03:44;;;;;;;6.68;4.45;;;;;;;15.43;82.16;100260.22;696421;28;4403;-57
2021/08/01 00:04:04;;;;;;;6.87;4.20;;;;;;;15.47;82.33;100258.38;696887;28;1135;-56
2021/08/01 00:04:24;;;;;;;6.23;4.30;;;;;;;15.50;82.29;100258.28;696300;28;1457;-57
2021/08/01 00:04:45;;;;;;;5.72;4.45;;;;;;;15.51;82.60;100254.72;696582;28;4145;-57
2021/08/01 00:05:26;;;;;;;5.90;4.40;;;;;;;15.53;82.26;100252.03;695058;28;4071;-57
2021/08/01 00:05:46;;;;;;;6.32;4.32;;;;;;;15.57;81.95;100259.78;695624;28;1356;-55
2021/08/01 00:06:09;;;;;;;6.83;4.17;;;;;;;15.57;82.29;100251.88;695701;28;1700;-57
2021/08/01 00:06:29;;;;;;;7.13;4.30;;;;;;;15.57;82.36;100251.88;695690;28;1303;-56
2021/08/01 00:06:49;;;;;;;6.32;4.30;;;;;;;15.56;82.52;100258.09;695762;28;4571;-58
2021/08/01 00:07:10;;;;;;;5.63;4.30;;;;;;;15.55;82.36;100256.38;696967;28;1334;-56
2021/08/01 00:07:32;;;;;;;5.90;4.10;;;;;;;15.55;82.12;100253.72;696755;28;4706;-57
2021/08/01 00:07:53;;;;;;;6.53;4.50;;;;;;;15.53;82.56;100252.91;695400;28;1590;-57
2021/08/01 00:08:13;;;;;;;7.53;4.60;;;;;;;15.50;83.08;100261.75;695487;28;4501;-55
2021/08/01 00:08:33;;;;;;;6.70;4.43;;;;;;;15.50;82.67;100253.00;697790;28;1339;-57
2021/08/01 00:08:54;;;;;;;6.30;4.40;;;;;;;15.51;82.20;100260.00;697453;28;1378;-56
2021/08/01 00:09:16;;;;;;;5.85;4.40;;;;;;;15.52;81.97;100256.47;696947;28;1470;-56
2021/08/01 00:09:37;;;;;;;7.30;4.45;;;;;;;15.54;82.28;100257.25;696683;28;1214;-57
2021/08/01 00:09:58;;;;;;;7.13;4.50;;;;;;;15.55;82.55;100260.75;695958;28;4362;-56
2021/08/01 00:10:19;;;;;;;6.30;4.22;;;;;;;15.55;81.92;100253.72;695914;28;1910;-57
2021/08/01 00:10:39;;;;;;;5.77;4.30;;;;;;;15.56;82.08;100254.56;693466;28;4185;-57
2021/08/01 00:11:00;;;;;;;6.85;4.32;;;;;;;15.56;82.24;100262.47;693362;28;1755;-55
2021/08/01 00:11:20;;;;;;;6.07;4.30;;;;;;;15.56;81.87;100258.09;694701;28;1684;-53
2021/08/01 00:11:41;;;;;;;5.60;4.13;;;;;;;15.58;82.03;100260.69;695295;28;1703;-57
2021/08/01 00:12:01;;;;;;;5.10;4.00;;;;;;;15.58;82.62;100261.53;695061;28;1480;-56
2021/08/01 00:12:21;;;;;;;5.93;4.20;;;;;;;15.57;82.74;100258.94;695078;28;1694;-58
2021/08/01 00:12:43;;;;;;;7.40;4.18;;;;;;;15.55;83.10;100266.00;695972;28;4425;-57
2021/08/01 00:13:03;;;;;;;7.75;4.43;;;;;;;15.54;82.39;100261.69;697167;28;1323;-56
2021/08/01 00:13:24;;;;;;;5.93;4.32;;;;;;;15.55;82.49;100261.63;695786;28;4009;-56
2021/08/01 00:13:44;;;;;;;6.37;4.47;;;;;;;15.54;82.71;100261.69;695908;28;4149;-57
2021/08/01 00:14:05;;;;;;;6.13;4.37;;;;;;;15.55;82.48;100266.91;696212;28;1776;-55
2021/08/01 00:14:25;;;;;;;5.47;4.13;;;;;;;15.55;82.38;100261.63;696157;28;1464;-55
2021/08/01 00:14:45;;;;;;;5.38;4.00;;;;;;;15.54;82.30;100264.31;697304;28;1384;-55
2021/08/01 00:15:06;;;;;;;6.47;4.50;;;;;;;15.50;82.51;100260.91;696977;28;1379;-53
2021/08/01 00:15:27;;;;;;;7.60;4.60;;;;;;;15.52;82.65;100261.72;697605;28;1672;-57
2021/08/01 00:15:48;;;;;;;7.10;4.68;;;;;;;15.50;82.69;100263.53;696593;28;4728;-56
2021/08/01 00:16:08;;;;;;;6.43;4.57;;;;;;;15.52;82.20;100261.72;692767;28;2904;-56
2021/08/01 00:16:29;;;;;;;6.77;4.40;;;;;;;15.52;82.54;100251.19;690514;28;1763;-54
2021/08/01 00:16:49;;;;;;;6.50;4.33;;;;;;;15.51;82.55;100257.38;691409;28;4186;-56
2021/08/01 00:17:10;;;;;;;6.60;4.20;;;;;;;15.52;82.74;100256.47;692226;28;1172;-57
2021/08/01 00:17:30;;;;;;;5.57;4.20;;;;;;;15.49;83.46;100259.16;692378;28;1288;-55
2021/08/01 00:17:50;;;;;;;6.23;4.33;;;;;;;15.45;83.71;100260.19;691791;28;1448;-54
2021/08/01 00:18:12;;;;;;;6.22;4.40;;;;;;;15.41;82.95;100258.56;694147;28;2056;-57
2021/08/01 00:18:32;;;;;;;6.30;4.30;;;;;;;15.44;81.89;100263.75;697329;28;1774;-57
2021/08/01 00:18:55;;;;;;;6.68;4.40;;;;;;;15.54;81.07;100259.91;696191;28;4390;-55
2021/08/01 00:19:16;;;;;;;6.47;4.10;;;;;;;15.59;80.73;100258.00;696254;28;3415;-55
2021/08/01 00:19:36;;;;;;;6.57;4.10;;;;;;;15.58;82.11;100255.41;696650;28;1616;-55
2021/08/01 00:19:57;;;;;;;6.60;4.30;;;;;;;15.54;82.17;100256.41;697102;28;1811;-57
2021/08/01 00:20:17;;;;;;;6.53;4.40;;;;;;;15.50;82.59;100256.50;696087;28;1875;-58
2021/08/01 00:20:38;;;;;;;6.03;4.40;;;;;;;15.45;82.91;100257.53;696316;28;1540;-58
2021/08/01 00:20:58;;;;;;;5.57;4.50;;;;;;;15.41;83.25;100255.91;696093;28;1319;-54
2021/08/01 00:21:18;;;;;;;6.18;4.50;;;;;;;15.39;83.47;100255.13;696927;28;1418;-57
2021/08/01 00:21:39;;;;;;;6.87;4.70;;;;;;;15.38;83.74;100254.28;696005;28;4472;-57
2021/08/01 00:21:59;;;;;;;7.03;4.63;;;;;;;15.38;83.75;100256.03;693351;28;4198;-56
2021/08/01 00:22:20;;;;;;;7.77;4.50;;;;;;;15.37;83.65;100259.56;693395;28;1337;-56
2021/08/01 00:22:40;;;;;;;6.90;4.50;;;;;;;15.37;83.79;100249.91;693263;28;1608;-57
2021/08/01 00:23:02;;;;;;;6.53;4.43;;;;;;;15.36;83.73;100256.06;692796;28;1515;-57
2021/08/01 00:23:23;;;;;;;5.90;4.40;;;;;;;15.37;83.88;100251.66;693027;28;1361;-56
2021/08/01 00:23:43;;;;;;;5.40;4.30;;;;;;;15.38;83.21;100248.13;692976;28;2090;-58
2021/08/01 00:24:04;;;;;;;6.87;4.47;;;;;;;15.37;84.15;100249.03;696559;28;1806;-57
2021/08/01 00:24:24;;;;;;;6.85;4.40;;;;;;;15.32;84.51;100249.16;696128;28;1572;-55
2021/08/01 00:24:44;;;;;;;6.40;4.40;;;;;;;15.29;84.30;100257.19;695897;28;4558;-53
2021/08/01 00:25:05;;;;;;;6.57;4.50;;;;;;;15.27;83.90;100254.59;695664;28;4445;-57
2021/08/01 00:25:26;;;;;;;5.50;4.53;;;;;;;15.26;83.71;100244.97;695766;28;1691;-56
2021/08/01 00:25:46;;;;;;;5.63;4.40;;;;;;;15.29;83.55;100252.75;695930;28;1382;-58
2021/08/01 00:26:07;;;;;;;6.13;4.60;;;;;;;15.30;84.16;100251.00;695347;28;1159;-56
2021/08/01 00:26:27;;;;;;;7.65;4.90;;;;;;;15.30;84.04;100251.00;696282;28;1267;-56
2021/08/01 00:26:47;;;;;;;7.03;4.72;;;;;;;15.28;84.01;100251.03;694851;28;1072;-56
2021/08/01 00:27:08;;;;;;;7.20;4.87;;;;;;;15.26;83.88;100244.97;694322;28;1274;-57
2021/08/01 00:27:33;;;;;;;7.25;4.70;;;;;;;15.26;83.09;100250.22;694093;28;3806;-56
2021/08/01 00:27:53;;;;;;;6.53;4.38;;;;;;;15.32;82.40;100244.75;694933;28;4495;-56
2021/08/01 00:28:14;;;;;;;6.60;4.70;;;;;;;15.35;83.10;100243.81;696483;28;2392;-54
2021/08/01 00:28:34;;;;;;;7.67;4.53;;;;;;;15.37;83.11;100246.38;696364;28;1661;-54
2021/08/01 00:28:54;;;;;;;6.97;4.50;;;;;;;15.36;83.02;100244.69;695818;28;1497;-57
2021/08/01 00:29:15;;;;;;;6.97;4.60;;;;;;;15.32;83.33;100239.50;694296;28;1385;-58
2021/08/01 00:29:35;;;;;;;6.32;4.70;;;;;;;15.28;84.05;100243.13;694327;28;1084;-57
2021/08/01 00:29:56;;;;;;;7.30;5.23;;;;;;;15.22;84.10;100251.22;689086;28;1610;-57
2021/08/01 00:30:16;;;;;;;6.63;4.75;;;;;;;15.18;84.18;100246.97;685921;28;4236;-57
2021/08/01 00:30:36;;;;;;;7.00;4.87;;;;;;;15.18;84.26;100249.59;686469;28;3372;-55
2021/08/01 00:30:59;;;;;;;8.65;5.10;;;;;;;15.18;84.35;100251.38;686009;28;5812;-57
2021/08/01 00:31:20;;;;;;;6.80;5.03;;;;;;;15.19;84.09;100247.81;689432;28;1099;-55
2021/08/01 00:31:40;;;;;;;6.25;4.60;;;;;;;15.21;84.15;100248.66;689018;28;1640;-58
2021/08/01 00:32:03;;;;;;;7.37;4.60;;;;;;;15.20;83.96;100250.41;693822;28;1834;-53
2021/08/01 00:32:23;;;;;;;6.13;4.68;;;;;;;15.24;83.32;100240.66;696690;28;1599;-57
2021/08/01 00:32:44;;;;;;;7.07;4.60;;;;;;;15.28;82.37;100242.28;696836;28;1471;-57
2021/08/01 00:33:05;;;;;;;6.15;4.28;;;;;;;15.36;81.96;100248.16;696197;28;3801;-56
2021/08/01 00:33:26;;;;;;;7.45;4.35;;;;;;;15.41;81.85;100248.91;696092;28;3993;-57
2021/08/01 00:33:46;;;;;;;5.97;4.67;;;;;;;15.42;82.32;100239.22;695419;28;4419;-56
2021/08/01 00:34:06;;;;;;;6.17;4.47;;;;;;;15.42;81.90;100247.13;696753;28;1401;-57
2021/08/01 00:34:27;;;;;;;6.72;4.10;;;;;;;15.39;82.31;100245.44;695756;28;1056;-54
2021/08/01 00:34:47;;;;;;;6.93;4.50;;;;;;;15.40;82.70;100241.03;695451;28;1656;-57
2021/08/01 00:35:08;;;;;;;6.43;4.70;;;;;;;15.38;83.01;100249.00;695758;28;1630;-58
2021/08/01 00:35:29;;;;;;;6.25;4.60;;;;;;;15.35;83.41;100245.59;693325;28;1702;-57
2021/08/01 00:35:49;;;;;;;6.78;4.70;;;;;;;15.33;82.97;100246.50;694692;28;1366;-57
2021/08/01 00:36:09;;;;;;;7.03;4.70;;;;;;;15.32;83.28;100242.13;693879;28;4398;-56
2021/08/01 00:36:30;;;;;;;6.70;4.70;;;;;;;15.31;83.30;100245.69;694677;28;1731;-57
2021/08/01 00:36:50;;;;;;;6.97;4.40;;;;;;;15.35;82.77;100242.94;691364;28;4636;-56
2021/08/01 00:37:10;;;;;;;6.67;4.57;;;;;;;15.37;82.84;100241.13;692097;28;1539;-54
2021/08/01 00:37:31;;;;;;;6.32;4.70;;;;;;;15.35;83.10;100233.28;689150;28;1665;-55
2021/08/01 00:37:51;;;;;;;6.77;4.60;;;;;;;15.35;83.46;100241.16;689964;28;1343;-57
2021/08/01 00:38:12;;;;;;;7.25;4.63;;;;;;;15.35;83.53;100237.69;690502;28;1579;-55
2021/08/01 00:38:32;;;;;;;6.63;4.70;;;;;;;15.33;83.13;100243.84;692153;28;1408;-55
2021/08/01 00:38:53;;;;;;;5.85;4.72;;;;;;;15.31;83.82;100243.06;693060;28;4137;-57
2021/08/01 00:39:13;;;;;;;6.80;4.60;;;;;;;15.27;84.30;100238.78;693657;28;4021;-57
2021/08/01 00:39:34;;;;;;;6.03;4.60;;;;;;;15.25;84.24;100245.00;696180;28;2319;-57
2021/08/01 00:39:54;;;;;;;7.05;4.82;;;;;;;15.25;83.79;100242.38;691908;28;4471;-56
2021/08/01 00:40:17;;;;;;;7.72;4.65;;;;;;;15.25;83.33;100237.97;691143;28;996;-57
2021/08/01 00:40:37;;;;;;;6.90;4.63;;;;;;;15.28;83.25;100239.66;690884;28;1552;-55
2021/08/01 00:40:58;;;;;;;6.05;4.43;;;;;;;15.30;83.34;100238.69;691477;28;1657;-58
2021/08/01 00:41:18;;;;;;;6.30;4.70;;;;;;;15.32;83.03;100244.75;687986;28;1457;-56
2021/08/01 00:41:39;;;;;;;6.30;4.45;;;;;;;15.33;83.28;100245.63;686537;28;4155;-57
2021/08/01 00:41:59;;;;;;;7.70;4.83;;;;;;;15.30;84.20;100240.47;683326;28;2383;-55
2021/08/01 00:42:20;;;;;;;7.43;4.85;;;;;;;15.30;84.30;100245.75;683479;28;1573;-57
2021/08/01 00:42:42;;;;;;;7.55;5.00;;;;;;;15.27;84.76;100248.44;681534;28;4575;-57
2021/08/01 00:43:02;;;;;;;6.38;4.68;;;;;;;15.26;84.41;100249.38;684747;28;1677;-57
2021/08/01 00:43:23;;;;;;;5.57;4.47;;;;;;;15.26;83.58;100242.31;688274;28;1996;-58
2021/08/01 00:43:43;;;;;;;5.63;4.50;;;;;;;15.30;83.37;100246.59;687374;28;1612;-56
2021/08/01 00:44:04;;;;;;;6.27;4.43;;;;;;;15.31;83.27;100250.97;686377;28;1969;-54
2021/08/01 00:44:25;;;;;;;6.45;4.30;;;;;;;15.33;83.19;100249.13;686223;28;3136;-54
2021/08/01 00:44:46;;;;;;;5.88;4.15;;;;;;;15.32;83.13;100250.03;686553;28;3803;-55
2021/08/01 00:45:07;;;;;;;6.05;4.28;;;;;;;15.32;83.25;100243.91;688845;28;1668;-56
2021/08/01 00:45:29;;;;;;;6.03;4.40;;;;;;;15.28;83.53;100253.66;689287;28;1733;-58
2021/08/01 00:45:49;;;;;;;5.57;4.60;;;;;;;15.24;84.19;100251.19;687974;28;4588;-57
2021/08/01 00:46:13;;;;;;;7.18;5.05;;;;;;;15.20;84.47;100250.41;688676;28;1535;-55
2021/08/01 00:46:33;;;;;;;6.40;5.05;;;;;;;15.19;84.45;100248.69;689295;28;1607;-56
2021/08/01 00:46:54;;;;;;;7.03;5.00;;;;;;;15.19;84.45;100243.44;689119;28;1750;-56
2021/08/01 00:47:14;;;;;;;6.80;4.90;;;;;;;15.19;83.96;100246.06;688098;28;3479;-57
2021/08/01 00:47:35;;;;;;;6.57;4.97;;;;;;;15.19;84.36;100242.56;686852;28;1419;-54
2021/08/01 00:47:57;;;;;;;6.53;5.20;;;;;;;15.20;84.35;100244.28;683822;28;4326;-57
2021/08/01 00:48:18;;;;;;;6.47;4.88;;;;;;;15.20;84.53;100245.13;685990;28;1547;-55
2021/08/01 00:48:39;;;;;;;6.18;4.72;;;;;;;15.20;84.80;100249.53;685504;28;4433;-56
2021/08/01 00:49:01;;;;;;;6.80;4.60;;;;;;;15.20;84.05;100239.03;685489;28;1290;-57
2021/08/01 00:49:22;;;;;;;6.80;4.70;;;;;;;15.18;84.74;100243.47;685405;28;1361;-56
2021/08/01 00:49:43;;;;;;;7.40;4.90;;;;;;;15.17;83.96;100250.50;688377;28;1454;-56
2021/08/01 00:50:08;;;;;;;7.72;4.72;;;;;;;15.20;83.60;100247.75;692261;28;4175;-57
2021/08/01 00:50:28;;;;;;;7.28;4.38;;;;;;;15.20;84.69;100246.91;688785;28;4315;-58
2021/08/01 00:50:49;;;;;;;7.00;4.70;;;;;;;15.21;84.09;100248.66;685635;28;1627;-55
2021/08/01 00:51:09;;;;;;;6.72;4.57;;;;;;;15.24;83.45;100246.75;684786;28;1668;-56
2021/08/01 00:51:30;;;;;;;7.63;4.90;;;;;;;15.27;83.41;100248.44;683193;28;1725;-55
2021/08/01 00:51:50;;;;;;;6.97;5.00;;;;;;;15.27;84.01;100248.44;686686;28;4585;-57
2021/08/01 00:52:11;;;;;;;6.97;4.90;;;;;;;15.21;84.69;100246.88;687257;28;1520;-56
2021/08/01 00:52:34;;;;;;;7.33;5.03;;;;;;;15.17;84.67;100249.66;689737;28;1616;-52
2021/08/01 00:52:55;;;;;;;6.93;4.60;;;;;;;15.14;84.69;100247.97;691003;28;4051;-58
2021/08/01 00:53:17;;;;;;;6.38;4.70;;;;;;;15.09;84.86;100250.75;690497;28;3255;-57
2021/08/01 00:53:38;;;;;;;6.35;4.63;;;;;;;15.12;83.94;100252.44;691208;28;1823;-57
2021/08/01 00:53:59;;;;;;;6.85;4.88;;;;;;;15.17;83.79;100260.19;689506;28;1105;-53
2021/08/01 00:54:20;;;;;;;6.82;5.05;;;;;;;15.19;83.91;100248.69;688740;28;1447;-56
2021/08/01 00:54:41;;;;;;;7.00;4.70;;;;;;;15.19;84.07;100253.97;689084;28;4343;-57
2021/08/01 00:55:04;;;;;;;6.40;4.80;;;;;;;15.21;84.31;100251.28;689787;28;1810;-56
2021/08/01 00:55:25;;;;;;;7.13;5.00;;;;;;;15.20;84.49;100249.53;692587;28;1286;-56
2021/08/01 00:55:47;;;;;;;7.65;4.80;;;;;;;15.21;83.89;100251.28;691568;28;4141;-55
2021/08/01 00:56:09;;;;;;;7.23;4.50;;;;;;;15.20;83.67;100253.03;690791;28;3989;-56
2021/08/01 00:56:30;;;;;;;6.60;4.80;;;;;;;15.22;83.85;100251.22;691337;28;1678;-56
2021/08/01 00:56:51;;;;;;;7.20;4.93;;;;;;;15.20;84.70;100249.53;689573;28;1807;-56
2021/08/01 00:57:12;;;;;;;7.60;4.90;;;;;;;15.20;84.03;100250.41;690051;28;1546;-55
2021/08/01 00:57:33;;;;;;;7.07;4.73;;;;;;;15.20;84.40;100249.53;689250;28;1443;-57
2021/08/01 00:57:53;;;;;;;7.28;4.70;;;;;;;15.22;84.40;100248.59;691486;28;4368;-52
2021/08/01 00:58:15;;;;;;;6.57;4.72;;;;;;;15.21;84.52;100251.28;689336;28;1576;-56
2021/08/01 00:58:35;;;;;;;6.60;4.90;;;;;;;15.18;85.05;100254.00;688257;28;3785;-56
2021/08/01 00:58:56;;;;;;;7.30;4.80;;;;;;;15.14;85.10;100246.19;689658;28;3641;-56
2021/08/01 00:59:17;;;;;;;6.73;4.70;;;;;;;15.09;85.81;100248.13;691742;28;1946;-55
2021/08/01 00:59:39;;;;;;;6.28;4.97;;;;;;;15.07;85.85;100251.69;690880;28;1888;-55
2021/08/01 01:00:02;;;;;;;6.20;4.60;;;;;;;15.07;85.34;100255.19;692497;28;2002;-57
2021/08/01 01:01:29;;;;;;;7.03;4.72;;;;;;;15.07;85.50;100255.19;685650;28;4136;-57
2021/08/01 01:02:03;;;;;;;6.28;4.68;;;;;;;15.03;85.91;100247.44;686178;28;2029;-56
2021/08/01 01:02:35;;;;;;;7.28;5.10;;;;;;;15.01;85.67;100244.84;685785;28;2244;-58
2021/08/01 01:03:00;;;;;;;6.03;4.60;;;;;;;15.03;85.39;100240.38;686318;28;1600;-56
2021/08/01 01:03:27;;;;;;;6.45;4.82;;;;;;;15.01;85.77;100250.13;688549;28;1476;-54
2021/08/01 01:03:56;;;;;;;7.18;4.97;;;;;;;15.00;85.70;100245.75;688998;28;4428;-55
2021/08/01 01:04:40;;;;;;;7.68;4.90;;;;;;;14.98;85.97;100240.53;691233;28;4008;-56
2021/08/01 01:05:10;;;;;;;6.32;4.88;;;;;;;15.01;86.38;100243.97;689372;28;1873;-57
2021/08/01 01:05:39;;;;;;;7.00;4.93;;;;;;;15.02;85.73;100246.56;692196;28;2092;-54
2021/08/01 01:06:13;;;;;;;6.75;5.05;;;;;;;15.06;85.12;100242.06;694025;28;1706;-57
2021/08/01 01:06:57;;;;;;;6.13;5.00;;;;;;;15.00;86.17;100237.84;692817;28;1842;-55
2021/08/01 01:07:34;;;;;;;7.25;5.22;;;;;;;14.97;86.34;100238.81;688992;28;4848;-57
2021/08/01 01:08:20;;;;;;;7.45;5.13;;;;;;;14.93;86.46;100237.16;691333;28;1779;-55
2021/08/01 01:09:03;;;;;;;6.70;5.07;;;;;;;14.90;86.67;100234.63;692766;28;1712;-57
2021/08/01 01:10:38;;;;;;;6.80;5.00;;;;;;;14.89;86.75;100237.31;696867;28;4528;-56
2021/08/01 01:11:06;;;;;;;6.93;5.18;;;;;;;14.88;86.50;100233.81;685923;28;1666;-56
2021/08/01 01:11:33;;;;;;;7.95;5.15;;;;;;;14.90;86.00;100233.78;685460;28;1508;-57
2021/08/01 01:11:58;;;;;;;6.75;5.38;;;;;;;14.95;85.86;100235.38;685508;28;1014;-57
2021/08/01 01:12:25;;;;;;;7.00;5.10;;;;;;;14.95;86.03;100232.75;683035;28;1049;-57
2021/08/01 01:12:51;;;;;;;8.73;5.43;;;;;;;14.97;85.81;100237.94;682293;28;4570;-56
2021/08/01 01:13:22;;;;;;;7.78;5.00;;;;;;;15.00;85.58;100234.38;683552;28;3219;-56
2021/08/01 01:13:51;;;;;;;6.95;5.50;;;;;;;14.98;85.87;100230.00;692107;28;1463;-57
2021/08/01 01:14:22;;;;;;;8.07;5.22;;;;;;;14.95;86.09;100230.09;693223;28;1607;-57
2021/08/01 01:14:47;;;;;;;7.70;5.22;;;;;;;14.98;85.21;100240.53;694848;28;1836;-57
2021/08/01 01:15:12;;;;;;;7.90;4.90;;;;;;;15.02;84.71;100238.66;692760;28;1511;-55
2021/08/01 01:15:34;;;;;;;8.68;5.25;;;;;;;15.05;85.45;100240.34;690927;28;3375;-55
2021/08/01 01:15:58;;;;;;;6.75;5.13;;;;;;;15.07;86.07;100238.53;690454;28;4625;-55
2021/08/01 01:16:18;;;;;;;6.53;4.90;;;;;;;15.06;85.17;100236.81;690994;28;4273;-57
2021/08/01 01:16:48;;;;;;;8.13;4.90;;;;;;;15.12;83.95;100240.13;691220;28;1246;-55
2021/08/01 01:17:12;;;;;;;8.02;5.00;;;;;;;15.18;83.63;100236.44;691733;28;1278;-56
2021/08/01 01:17:33;;;;;;;7.28;5.07;;;;;;;15.19;84.65;100237.28;691815;28;1334;-55
2021/08/01 01:17:54;;;;;;;6.93;5.03;;;;;;;15.14;85.56;100240.91;694068;28;1671;-56
2021/08/01 01:18:28;;;;;;;7.90;5.20;;;;;;;15.10;85.89;100235.81;691125;28;1238;-62
2021/08/01 01:18:51;;;;;;;6.70;4.97;;;;;;;15.11;84.99;100234.91;691236;28;4611;-53
2021/08/01 01:19:31;;;;;;;7.72;4.90;;;;;;;15.12;84.64;100231.38;691730;28;3365;-57
2021/08/01 01:20:09;;;;;;;6.32;4.80;;;;;;;15.13;84.55;100233.06;694701;28;1875;-55
2021/08/01 01:20:45;;;;;;;6.63;5.03;;;;;;;15.14;85.09;100240.06;694673;28;1008;-55
2021/08/01 01:21:33;;;;;;;6.22;4.80;;;;;;;15.07;86.14;100228.00;690901;28;1433;-55
2021/08/01 01:22:08;;;;;;;7.03;4.82;;;;;;;15.05;85.83;100235.06;691294;28;4567;-57
2021/08/01 01:22:46;;;;;;;6.30;5.10;;;;;;;15.04;85.97;100234.22;690457;28;1311;-56
2021/08/01 01:23:41;;;;;;;8.02;5.57;;;;;;;15.04;86.46;100234.22;679684;29;1445;-56
2021/08/01 01:24:32;;;;;;;7.20;4.95;;;;;;;15.08;85.05;100230.59;692665;28;3955;-57
2021/08/01 01:24:54;;;;;;;7.40;5.07;;;;;;;15.11;84.31;100234.91;692714;28;4330;-58
2021/08/01 01:25:47;;;;;;;7.50;5.25;;;;;;;15.16;84.80;100235.63;691915;28;1548;-53
2021/08/01 01:26:39;;;;;;;6.45;4.80;;;;;;;15.09;85.37;100234.94;689454;28;1675;-58
2021/08/01 01:27:15;;;;;;;8.07;5.20;;;;;;;15.02;85.86;100237.81;686715;28;4181;-54
2021/08/01 01:27:58;;;;;;;7.93;5.30;;;;;;;15.02;86.12;100235.16;688503;28;1421;-55
2021/08/01 01:28:48;;;;;;;7.75;5.47;;;;;;;15.10;84.25;100235.81;684778;28;5072;-58
2021/08/01 01:29:23;;;;;;;6.55;4.90;;;;;;;15.12;85.21;100237.47;684155;28;1217;-58
2021/08/01 01:29:57;;;;;;;8.35;5.10;;;;;;;15.12;85.44;100234.00;689302;28;3839;-57
2021/08/01 01:30:19;;;;;;;7.63;5.35;;;;;;;15.11;85.59;100235.75;692194;28;2522;-55
2021/08/01 01:30:48;;;;;;;7.70;5.30;;;;;;;15.11;85.88;100240.16;692890;28;4497;-58
2021/08/01 01:31:45;;;;;;;8.68;5.32;;;;;;;15.14;85.27;100240.06;693738;28;1658;-54
2021/08/01 01:32:10;;;;;;;7.07;5.28;;;;;;;15.08;85.99;100240.28;694133;28;1650;-57
2021/08/01 01:32:41;;;;;;;7.43;5.53;;;;;;;15.05;86.29;100237.69;694040;28;3504;-57
2021/08/01 01:33:08;;;;;;;7.95;5.40;;;;;;;15.02;86.42;100246.56;692997;28;1664;-58
2021/08/01 01:33:35;;;;;;;7.63;5.30;;;;;;;15.02;86.11;100250.97;693955;28;1660;-57
2021/08/01 01:34:01;;;;;;;7.65;5.10;;;;;;;15.05;85.19;100250.88;692481;28;4330;-54
2021/08/01 01:34:38;;;;;;;8.13;5.10;;;;;;;15.03;86.25;100243.03;691400;28;1367;-54
2021/08/01 01:35:11;;;;;;;8.20;5.55;;;;;;;15.02;86.47;100249.19;693145;28;1343;-55
2021/08/01 01:35:39;;;;;;;8.15;5.57;;;;;;;15.03;86.43;100243.03;690982;28;3130;-56
2021/08/01 01:36:02;;;;;;;7.72;5.30;;;;;;;15.03;86.31;100243.03;690907;28;1377;-55
2021/08/01 01:36:28;;;;;;;7.30;5.30;;;;;;;15.06;85.39;100244.69;688900;28;1400;-56
2021/08/01 01:36:51;;;;;;;6.80;4.80;;;;;;;15.05;85.85;100240.34;687184;28;4307;-57
2021/08/01 01:37:16;;;;;;;6.32;4.80;;;;;;;15.06;84.75;100244.69;688806;28;1266;-62
2021/08/01 01:37:38;;;;;;;6.35;5.05;;;;;;;15.06;85.78;100245.56;689464;28;1638;-57
2021/08/01 01:38:06;;;;;;;7.28;5.38;;;;;;;15.06;86.17;100244.69;689132;28;1690;-55
2021/08/01 01:39:02;;;;;;;7.20;5.43;;;;;;;15.04;86.49;100241.28;680915;29;4058;-57
2021/08/01 01:39:36;;;;;;;7.15;5.25;;;;;;;15.11;85.05;100237.53;682450;28;1689;-57
2021/08/01 01:40:02;;;;;;;6.50;5.00;;;;;;;15.13;85.62;100240.97;690922;28;6099;-57
2021/08/01 01:40:38;;;;;;;7.25;5.47;;;;;;;15.12;85.32;100236.63;693819;28;1338;-56
2021/08/01 01:41:28;;;;;;;7.20;5.25;;;;;;;15.10;86.23;100239.28;685921;28;2728;-56
2021/08/01 01:42:00;;;;;;;7.60;5.22;;;;;;;15.14;85.80;100232.16;692086;28;1656;-57
2021/08/01 01:42:34;;;;;;;7.40;5.22;;;;;;;15.16;84.91;100233.00;693113;28;1501;-55
2021/08/01 01:42:58;;;;;;;7.35;5.03;;;;;;;15.16;85.88;100233.00;690478;28;4439;-56
2021/08/01 01:43:18;;;;;;;8.70;5.50;;;;;;;15.13;86.33;100231.31;691418;28;1586;-56
2021/08/01 01:43:39;;;;;;;7.20;5.35;;;;;;;15.12;86.32;100236.63;689078;28;1689;-57
2021/08/01 01:44:01;;;;;;;7.80;5.60;;;;;;;15.11;86.43;100229.63;689286;28;4271;-56
2021/08/01 01:44:22;;;;;;;7.20;5.70;;;;;;;15.14;85.54;100235.66;689390;28;1358;-56
2021/08/01 01:44:44;;;;;;;7.30;5.47;;;;;;;15.19;84.12;100234.66;687688;28;1606;-55
2021/08/01 01:45:05;;;;;;;6.80;5.03;;;;;;;15.31;83.17;100234.28;689335;28;1710;-57
2021/08/01 01:45:30;;;;;;;7.20;4.88;;;;;;;15.30;84.73;100225.53;687055;28;1495;-56
2021/08/01 01:45:51;;;;;;;7.57;5.43;;;;;;;15.31;85.27;100226.38;690381;28;4565;-58
2021/08/01 01:46:12;;;;;;;8.18;5.60;;;;;;;15.49;84.46;100232.81;688866;28;1547;-56
2021/08/01 01:46:35;;;;;;;7.55;5.78;;;;;;;15.60;84.13;100229.84;688746;28;1417;-57
2021/08/01 01:46:57;;;;;;;7.60;5.75;;;;;;;15.50;84.59;100231.94;690677;28;4134;-54
2021/08/01 01:47:19;;;;;;;6.93;5.57;;;;;;;15.44;84.05;100232.13;690711;28;3323;-57
2021/08/01 01:47:40;;;;;;;7.28;5.40;;;;;;;15.44;83.25;100226.88;690293;28;1380;-57
2021/08/01 01:48:01;;;;;;;7.38;5.20;;;;;;;15.42;83.11;100229.53;687853;28;1399;-56
2021/08/01 01:48:22;;;;;;;7.38;5.18;;;;;;;15.40;83.71;100230.50;684359;28;1752;-58
2021/08/01 01:48:43;;;;;;;7.13;5.38;;;;;;;15.38;82.80;100227.03;684345;28;5499;-57
2021/08/01 01:49:05;;;;;;;6.57;4.90;;;;;;;15.43;82.08;100225.13;683892;28;2381;-57
2021/08/01 01:49:28;;;;;;;7.20;5.38;;;;;;;15.39;84.70;100226.16;684139;28;1374;-56
2021/08/01 01:49:57;;;;;;;8.43;5.50;;;;;;;15.36;85.14;100232.38;684467;28;3962;-54
2021/08/01 01:50:18;;;;;;;9.35;6.20;;;;;;;15.32;84.58;100226.31;688425;28;1914;-58
2021/08/01 01:50:38;;;;;;;7.57;5.40;;;;;;;15.33;84.55;100229.84;688649;28;1741;-57
2021/08/01 01:51:00;;;;;;;8.38;5.60;;;;;;;15.30;85.21;100224.66;687281;28;1240;-56
2021/08/01 01:51:21;;;;;;;8.27;5.43;;;;;;;15.26;85.08;100230.94;687005;28;2077;-56
2021/08/01 01:51:42;;;;;;;7.75;5.82;;;;;;;15.23;85.67;100229.25;688100;28;5452;-56
2021/08/01 01:52:04;;;;;;;7.97;6.30;;;;;;;15.21;85.64;100230.22;686690;28;1620;-56
2021/08/01 01:52:27;;;;;;;7.63;5.88;;;;;;;15.20;84.99;100231.97;687133;28;4157;-56
2021/08/01 01:52:55;;;;;;;7.95;5.80;;;;;;;15.24;84.96;100233.59;686700;28;4134;-55
2021/08/01 01:53:17;;;;;;;8.57;6.30;;;;;;;15.25;85.38;100232.69;688657;28;1565;-55
2021/08/01 01:53:38;;;;;;;8.75;6.35;;;;;;;15.34;85.12;100228.94;685722;28;1673;-56
2021/08/01 01:53:59;;;;;;;9.25;6.90;;;;;;;15.39;84.63;100229.63;687166;28;1330;-58
2021/08/01 01:54:21;;;;;;;8.82;6.40;;;;;;;15.40;83.76;100227.88;686953;28;1363;-53
2021/08/01 01:54:42;;;;;;;8.25;5.90;;;;;;;15.41;83.49;100224.31;687470;28;4420;-57
2021/08/01 01:55:04;;;;;;;7.32;5.75;;;;;;;15.43;83.38;100231.25;688697;28;1058;-55
2021/08/01 01:55:28;;;;;;;7.45;5.72;;;;;;;15.39;84.27;100228.78;683728;28;3848;-57
2021/08/01 01:55:50;;;;;;;8.35;5.75;;;;;;;15.36;84.82;100228.88;684965;28;1668;-57
2021/08/01 01:56:13;;;;;;;8.15;5.90;;;;;;;15.36;84.09;100226.25;685383;28;1645;-57
2021/08/01 01:56:36;;;;;;;7.45;5.72;;;;;;;15.31;85.78;100222.00;687649;28;1679;-56
2021/08/01 01:56:59;;;;;;;7.50;5.80;;;;;;;15.27;85.42;100233.53;685424;28;1422;-56
2021/08/01 01:57:26;;;;;;;9.32;6.15;;;;;;;15.27;84.39;100225.63;687190;28;1937;-55